Time;durP1;ratioP1;P1;durP2;ratioP2;P2;SDS_P1;SDS_P2;PMS_P1;PMS_P2;Temp;Humidity;BMP_temperature;BMP_pressure;BME280_temperature;BME280_humidity;BME280_pressure;Samples;Min_cycle;Max_cycle;Signal;HPM_P1;HPM_P2
2022/10/24 00:02:04;;;;;;;;;;;;;;;17.49;43.25;99492.75;5020870;28;20381;-78
2022/10/24 00:04:29;;;;;;;;;;;;;;;17.49;43.22;99492.75;5002582;28;20016;-80
2022/10/24 00:06:54;;;;;;;;;;;;;;;17.48;43.16;99493.72;5020346;28;20008;-79
2022/10/24 00:09:19;;;;;;;;;;;;;;;17.47;43.27;99494.72;5020028;28;19918;-78
2022/10/24 00:11:45;;;;;;;;;;;;;;;17.47;43.31;99485.94;5002532;28;20467;-78
2022/10/24 00:14:10;;;;;;;;;;;;;;;17.48;43.08;99479.69;5004290;28;19917;-77
2022/10/24 00:16:35;;;;;;;;;;;;;;;17.46;43.40;99479.84;5003178;28;19918;-78
2022/10/24 00:19:01;;;;;;;;;;;;;;;17.44;43.27;99476.50;5019303;28;19928;-78
2022/10/24 00:21:26;;;;;;;;;;;;;;;17.42;43.32;99474.97;5020498;28;19970;-77
2022/10/24 00:23:51;;;;;;;;;;;;;;;17.41;43.25;99473.31;5002500;28;19921;-78
2022/10/24 00:26:17;;;;;;;;;;;;;;;17.39;43.44;99468.16;5021557;28;19921;-77
2022/10/24 00:28:42;;;;;;;;;;;;;;;17.38;43.34;99452.47;5022108;28;20003;-77
2022/10/24 00:31:08;;;;;;;;;;;;;;;17.38;43.40;99457.75;5020693;28;20003;-78
2022/10/24 00:33:33;;;;;;;;;;;;;;;17.37;43.42;99456.94;5002645;28;19972;-78
2022/10/24 00:35:58;;;;;;;;;;;;;;;17.35;43.38;99457.09;5003220;28;19920;-78
2022/10/24 00:38:23;;;;;;;;;;;;;;;17.34;43.65;99462.50;5020404;28;20311;-78
2022/10/24 00:40:49;;;;;;;;;;;;;;;17.36;43.60;99457.91;5002301;28;19928;-78
2022/10/24 00:43:22;;;;;;;;;;;;;;;17.34;43.47;99460.69;5004019;28;19921;-79
2022/10/24 00:46:00;;;;;;;;;;;;;;;17.33;43.62;99461.69;5004249;28;19979;-79
2022/10/24 00:48:26;;;;;;;;;;;;;;;17.32;43.64;99464.47;5020893;28;20008;-78
2022/10/24 00:50:53;;;;;;;;;;;;;;;17.30;43.81;99461.97;5005610;28;19979;-78
2022/10/24 00:53:19;;;;;;;;;;;;;;;17.30;43.80;99456.69;5023505;28;19921;-78
2022/10/24 00:55:45;;;;;;;;;;;;;;;17.31;43.95;99462.78;5021462;28;19983;-78
2022/10/24 00:58:10;;;;;;;;;;;;;;;17.30;43.78;99461.09;5005787;28;19918;-79
2022/10/24 01:00:36;;;;;;;;;;;;;;;17.30;43.89;99463.75;5006748;28;19967;-78
2022/10/24 01:03:01;;;;;;;;;;;;;;;17.28;43.84;99463.88;5023489;28;19917;-78
2022/10/24 01:05:27;;;;;;;;;;;;;;;17.27;43.78;99461.41;5005800;28;19944;-79
2022/10/24 01:08:06;;;;;;;;;;;;;;;17.26;44.14;99459.75;5025122;28;20351;-80
2022/10/24 01:10:51;;;;;;;;;;;;;;;17.24;43.84;99454.63;5021991;28;19974;-78
2022/10/24 01:13:25;;;;;;;;;;;;;;;17.22;44.18;99459.22;5004102;28;19921;-79
2022/10/24 01:16:00;;;;;;;;;;;;;;;17.22;44.01;99455.72;5021371;28;19922;-80
2022/10/24 01:18:52;;;;;;;;;;;;;;;17.21;44.17;99454.06;5005221;28;19980;-79
2022/10/24 01:21:24;;;;;;;;;;;;;;;17.21;44.19;99460.16;5015448;28;20428;-79
2022/10/24 01:23:49;;;;;;;;;;;;;;;17.19;44.03;99462.13;5025158;28;19921;-79
2022/10/24 01:26:17;;;;;;;;;;;;;;;17.18;44.25;99457.81;5021989;28;20370;-78
2022/10/24 01:28:57;;;;;;;;;;;;;;;17.16;44.22;99455.31;5023661;28;19939;-78
2022/10/24 01:31:24;;;;;;;;;;;;;;;17.15;44.18;99452.81;5006631;28;19925;-77
2022/10/24 01:33:52;;;;;;;;;;;;;;;17.14;44.43;99456.41;5021348;28;19931;-78
2022/10/24 01:36:20;;;;;;;;;;;;;;;17.13;44.44;99458.25;5006051;28;19917;-77
2022/10/24 01:38:55;;;;;;;;;;;;;;;17.12;44.28;99451.28;5006581;28;19921;-78
2022/10/24 01:41:22;;;;;;;;;;;;;;;17.12;44.50;99450.47;5005467;28;20009;-79
2022/10/24 01:43:47;;;;;;;;;;;;;;;17.10;44.59;99458.53;5004878;28;19926;-80
2022/10/24 01:46:14;;;;;;;;;;;;;;;17.09;44.60;99451.56;5023005;28;19918;-80
2022/10/24 01:48:41;;;;;;;;;;;;;;;17.08;44.31;99452.56;5022273;28;20427;-79
2022/10/24 01:51:06;;;;;;;;;;;;;;;17.06;44.59;99446.56;5004525;28;19975;-79
2022/10/24 01:53:32;;;;;;;;;;;;;;;17.05;44.49;99438.84;5023203;28;20281;-79
2022/10/24 01:55:57;;;;;;;;;;;;;;;17.04;44.75;99437.97;5022181;28;19948;-79
2022/10/24 01:58:22;;;;;;;;;;;;;;;17.03;44.73;99430.22;5005155;28;19917;-79
2022/10/24 02:00:48;;;;;;;;;;;;;;;17.02;44.79;99429.38;5022482;28;19975;-80
2022/10/24 02:03:33;;;;;;;;;;;;;;;17.02;44.81;99441.75;5021762;28;20385;-77
2022/10/24 02:06:00;;;;;;;;;;;;;;;17.00;44.62;99439.25;5021669;28;19921;-79
2022/10/24 02:08:29;;;;;;;;;;;;;;;16.99;44.70;99437.59;5020946;28;19921;-78
2022/10/24 02:10:56;;;;;;;;;;;;;;;16.97;44.85;99440.34;5004920;28;19924;-78
2022/10/24 02:13:32;;;;;;;;;;;;;;;16.96;44.80;99437.84;5004794;28;19921;-79
2022/10/24 02:15:58;;;;;;;;;;;;;;;16.96;44.95;99441.31;5003372;28;19918;-79
2022/10/24 02:18:23;;;;;;;;;;;;;;;16.95;45.05;99436.19;5004300;28;19921;-79
2022/10/24 02:21:09;;;;;;;;;;;;;;;16.93;44.83;99433.69;5005737;28;19933;-78
2022/10/24 02:23:43;;;;;;;;;;;;;;;16.93;44.78;99444.25;5020246;28;20323;-78
2022/10/24 02:26:10;;;;;;;;;;;;;;;16.92;44.94;99439.09;5020273;28;20015;-79
2022/10/24 02:28:37;;;;;;;;;;;;;;;16.89;44.90;99437.59;5005246;28;19956;-78
2022/10/24 02:31:06;;;;;;;;;;;;;;;16.90;45.03;99438.41;5021697;28;19925;-78
2022/10/24 02:33:31;;;;;;;;;;;;;;;16.90;44.82;99435.78;5003901;28;19960;-79
2022/10/24 02:35:56;;;;;;;;;;;;;;;16.88;45.08;99435.91;5005508;28;19953;-79
2022/10/24 02:38:29;;;;;;;;;;;;;;;16.86;45.18;99437.88;5021471;28;20016;-78
2022/10/24 02:40:55;;;;;;;;;;;;;;;16.85;45.26;99441.44;5020477;28;20007;-80
2022/10/24 02:43:20;;;;;;;;;;;;;;;16.83;45.19;99444.22;5004284;28;20020;-77
2022/10/24 02:45:45;;;;;;;;;;;;;;;16.83;45.19;99449.50;5005656;28;20404;-78
2022/10/24 02:48:11;;;;;;;;;;;;;;;16.81;45.32;99440.06;5019782;28;19917;-78
2022/10/24 02:50:37;;;;;;;;;;;;;;;16.79;45.26;99442.84;5004842;28;19971;-78
2022/10/24 02:53:02;;;;;;;;;;;;;;;16.78;45.33;99451.72;5005102;28;19917;-78
2022/10/24 02:55:27;;;;;;;;;;;;;;;16.76;45.39;99451.03;5003119;28;19926;-77
2022/10/24 02:57:53;;;;;;;;;;;;;;;16.75;45.42;99452.00;5005002;28;19924;-78
2022/10/24 03:00:18;;;;;;;;;;;;;;;16.75;45.35;99454.63;5021807;28;19921;-77
2022/10/24 03:02:43;;;;;;;;;;;;;;;16.74;45.34;99450.31;5003713;28;19924;-78
2022/10/24 03:05:09;;;;;;;;;;;;;;;16.72;45.29;99449.63;5022061;28;19975;-78
2022/10/24 03:07:34;;;;;;;;;;;;;;;16.72;45.34;99441.72;5019967;28;19918;-77
2022/10/24 03:09:59;;;;;;;;;;;;;;;16.71;45.46;99434.78;5020715;28;20399;-78
2022/10/24 03:12:25;;;;;;;;;;;;;;;16.70;45.41;99437.56;5021555;28;20408;-78
2022/10/24 03:14:50;;;;;;;;;;;;;;;16.70;45.51;99443.69;5019515;28;19917;-78
2022/10/24 03:17:16;;;;;;;;;;;;;;;16.70;45.42;99437.56;5004605;28;20015;-79
2022/10/24 03:19:41;;;;;;;;;;;;;;;16.69;45.65;99435.91;5003881;28;19976;-79
2022/10/24 03:22:06;;;;;;;;;;;;;;;16.68;45.72;99434.25;5020755;28;19932;-77
2022/10/24 03:24:31;;;;;;;;;;;;;;;16.66;45.65;99439.66;5021607;28;20296;-77
2022/10/24 03:26:57;;;;;;;;;;;;;;;16.65;45.62;99435.34;5019714;28;20015;-77
2022/10/24 03:29:22;;;;;;;;;;;;;;;16.62;45.61;99439.09;5003506;28;19917;-81
2022/10/24 03:31:47;;;;;;;;;;;;;;;16.60;45.67;99438.41;5005186;28;20361;-76
2022/10/24 03:34:13;;;;;;;;;;;;;;;16.59;45.85;99436.75;5003157;28;20436;-76
2022/10/24 03:36:38;;;;;;;;;;;;;;;16.59;45.70;99441.19;5004032;28;19967;-77
2022/10/24 03:39:03;;;;;;;;;;;;;;;16.58;46.83;99442.16;5020598;28;20016;-76
2022/10/24 03:41:29;;;;;;;;;;;;;;;16.58;46.80;99439.50;5020060;28;19996;-81
2022/10/24 03:43:54;;;;;;;;;;;;;;;16.58;46.68;99435.06;5005298;28;19924;-78
2022/10/24 03:46:19;;;;;;;;;;;;;;;16.56;46.48;99433.56;5013942;28;20415;-78
2022/10/24 03:48:45;;;;;;;;;;;;;;;16.53;46.25;99431.19;4999014;28;20292;-75
2022/10/24 03:51:10;;;;;;;;;;;;;;;16.51;46.21;99441.03;5025396;28;19917;-81
2022/10/24 03:53:35;;;;;;;;;;;;;;;16.49;46.30;99435.88;5003140;28;19925;-80
2022/10/24 03:56:01;;;;;;;;;;;;;;;16.48;46.07;99443.94;5004714;28;19996;-92
2022/10/24 03:58:26;;;;;;;;;;;;;;;16.45;46.08;99437.97;5024813;28;19943;-78
2022/10/24 04:00:51;;;;;;;;;;;;;;;16.45;46.15;99437.16;5019004;28;19918;-79
2022/10/24 04:03:17;;;;;;;;;;;;;;;16.44;46.00;99438.94;5020969;28;19963;-79
2022/10/24 04:05:43;;;;;;;;;;;;;;;16.44;45.96;99436.31;5021291;28;19917;-78
2022/10/24 04:08:08;;;;;;;;;;;;;;;16.44;45.97;99432.84;5003737;28;19924;-80
2022/10/24 04:10:33;;;;;;;;;;;;;;;16.43;46.04;99436.44;5004710;28;20541;-79
2022/10/24 04:12:59;;;;;;;;;;;;;;;16.40;45.93;99434.09;5020112;28;20667;-79
2022/10/24 04:15:24;;;;;;;;;;;;;;;16.38;45.98;99428.97;5005134;28;19956;-77
2022/10/24 04:17:49;;;;;;;;;;;;;;;16.37;46.01;99427.28;5002843;28;19932;-81
2022/10/24 04:20:18;;;;;;;;;;;;;;;16.36;45.97;99427.44;5019197;28;19926;-80
2022/10/24 04:22:44;;;;;;;;;;;;;;;16.34;46.16;99429.38;5022145;28;19929;-80
2022/10/24 04:25:09;;;;;;;;;;;;;;;16.32;46.19;99429.53;5005489;28;20313;-80
2022/10/24 04:27:39;;;;;;;;;;;;;;;16.31;46.19;99429.66;5025930;28;19953;-79
2022/10/24 04:30:05;;;;;;;;;;;;;;;16.37;53.23;99437.00;5007609;28;19917;-77
2022/10/24 04:32:43;;;;;;;;;;;;;;;16.72;60.48;99440.91;5022968;28;19984;-82
2022/10/24 04:35:08;;;;;;;;;;;;;;;16.78;56.16;99438.53;5024836;28;20378;-75
2022/10/24 04:37:33;;;;;;;;;;;;;;;16.74;54.56;99439.78;5023701;28;20000;-75
2022/10/24 04:39:59;;;;;;;;;;;;;;;16.68;53.32;99429.78;5008435;28;19925;-77
2022/10/24 04:42:24;;;;;;;;;;;;;;;16.63;52.40;99424.97;5008701;28;19969;-73
2022/10/24 04:44:49;;;;;;;;;;;;;;;16.65;51.49;99430.06;5021937;28;20001;-79
2022/10/24 04:47:16;;;;;;;;;;;;;;;16.73;50.49;99432.88;5005356;28;19921;-77
2022/10/24 04:49:41;;;;;;;;;;;;;;;16.78;49.68;99435.91;5007236;28;19918;-79
2022/10/24 04:52:07;;;;;;;;;;;;;;;16.99;48.87;99432.31;5022501;28;19932;-74
2022/10/24 04:54:32;;;;;;;;;;;;;;;17.10;48.09;99433.97;5023757;28;19917;-74
2022/10/24 04:56:57;;;;;;;;;;;;;;;17.45;47.11;99432.47;5023252;28;19925;-73
2022/10/24 04:59:23;;;;;;;;;;;;;;;18.00;50.76;99434.34;5027972;28;19924;-75
2022/10/24 05:01:48;;;;;;;;;;;;;;;18.37;48.34;99434.22;5008489;28;19940;-75
2022/10/24 05:04:13;;;;;;;;;;;;;;;18.78;46.92;99436.41;5022142;28;20008;-73
2022/10/24 05:06:39;;;;;;;;;;;;;;;19.25;45.44;99430.84;5006497;28;20245;-73
2022/10/24 05:09:04;;;;;;;;;;;;;;;19.72;44.03;99442.84;5023236;28;20411;-73
2022/10/24 05:11:30;;;;;;;;;;;;;;;20.15;42.92;99441.03;5021580;28;20003;-73
2022/10/24 05:13:56;;;;;;;;;;;;;;;20.19;42.25;99438.88;5008128;28;19921;-72
2022/10/24 05:16:21;;;;;;;;;;;;;;;20.49;41.45;99440.09;5006330;28;20341;-74
2022/10/24 05:18:46;;;;;;;;;;;;;;;21.09;40.13;99448.75;5023642;28;19971;-73
2022/10/24 05:21:12;;;;;;;;;;;;;;;21.50;38.59;99446.06;5005139;28;19921;-79
2022/10/24 05:23:37;;;;;;;;;;;;;;;21.65;36.78;99449.66;5006987;28;19917;-77
2022/10/24 05:26:02;;;;;;;;;;;;;;;21.88;36.40;99461.38;5023835;28;19918;-78
2022/10/24 05:28:29;;;;;;;;;;;;;;;22.43;40.45;99457.78;5006258;28;20352;-84
2022/10/24 05:30:57;;;;;;;;;;;;;;;23.05;38.29;99462.13;5023047;28;19922;-79
2022/10/24 05:33:22;;;;;;;;;;;;;;;23.63;36.50;99462.41;5022849;28;19917;-78
2022/10/24 05:35:49;;;;;;;;;;;;;;;24.12;34.96;99454.84;5006162;28;20007;-79
2022/10/24 05:38:14;;;;;;;;;;;;;;;24.55;33.56;99454.88;5024603;28;19921;-72
2022/10/24 05:40:39;;;;;;;;;;;;;;;24.73;31.83;99457.97;5022927;28;20721;-72
2022/10/24 05:43:05;;;;;;;;;;;;;;;24.80;30.50;99455.38;5005804;28;20406;-74
2022/10/24 05:45:30;;;;;;;;;;;;;;;24.83;30.71;99459.50;5023979;28;19927;-80
2022/10/24 05:47:55;;;;;;;;;;;;;;;25.05;30.38;99461.13;5008888;28;19917;-76
2022/10/24 05:50:21;;;;;;;;;;;;;;;24.87;28.52;99455.41;5006252;28;19917;-77
2022/10/24 05:52:46;;;;;;;;;;;;;;;24.34;29.83;99453.84;5023978;28;19917;-75
2022/10/24 05:55:13;;;;;;;;;;;;;;;24.04;30.10;99453.13;5023793;28;20012;-75
2022/10/24 05:57:42;;;;;;;;;;;;;;;23.89;30.11;99461.13;5024187;28;19940;-80
2022/10/24 06:00:09;;;;;;;;;;;;;;;23.80;30.09;99468.38;5019528;28;19918;-76
2022/10/24 06:02:35;;;;;;;;;;;;;;;23.77;30.29;99466.09;5023994;28;19957;-77
2022/10/24 06:05:00;;;;;;;;;;;;;;;24.18;33.66;99467.44;5005837;28;19959;-76
2022/10/24 06:07:26;;;;;;;;;;;;;;;24.89;31.65;99478.25;5006542;28;19933;-74
2022/10/24 06:09:51;;;;;;;;;;;;;;;25.39;30.19;99472.88;5007182;28;19956;-79
2022/10/24 06:12:16;;;;;;;;;;;;;;;25.95;29.10;99480.00;5006906;28;19918;-74
2022/10/24 06:14:43;;;;;;;;;;;;;;;26.38;27.69;99478.09;5022440;28;19924;-74
2022/10/24 06:17:10;;;;;;;;;;;;;;;26.66;26.83;99488.69;5023079;28;20400;-76
2022/10/24 06:19:36;;;;;;;;;;;;;;;26.48;27.58;99487.38;5005086;28;19925;-75
2022/10/24 06:22:01;;;;;;;;;;;;;;;26.98;26.57;99483.56;5007497;28;20403;-77
2022/10/24 06:24:27;;;;;;;;;;;;;;;27.40;25.90;99487.69;5021312;28;19925;-73
2022/10/24 06:26:52;;;;;;;;;;;;;;;27.42;24.88;99492.84;5003785;28;20396;-76
2022/10/24 06:29:17;;;;;;;;;;;;;;;27.70;24.01;99491.78;5003772;28;20399;-76
2022/10/24 06:31:43;;;;;;;;;;;;;;;27.84;23.20;99501.41;5006868;28;19924;-74
2022/10/24 06:34:08;;;;;;;;;;;;;;;28.30;22.20;99488.88;5020246;28;19972;-73
2022/10/24 06:36:35;;;;;;;;;;;;;;;28.92;21.84;99499.88;5019118;28;19921;-73
2022/10/24 06:39:01;;;;;;;;;;;;;;;29.97;22.77;99489.38;5021021;28;19925;-86
2022/10/24 06:41:26;;;;;;;;;;;;;;;31.41;21.75;99498.47;5009424;28;19924;-89
2022/10/24 06:43:52;;;;;;;;;;;;;;;32.76;19.71;99490.94;5026337;28;19921;-86
2022/10/24 06:46:22;;;;;;;;;;;;;;;33.78;18.29;99495.47;5009168;28;19921;-84
2022/10/24 06:48:48;;;;;;;;;;;;;;;34.13;17.63;99495.06;5009884;28;19917;-86
2022/10/24 06:51:15;;;;;;;;;;;;;;;34.53;17.33;99488.47;5022842;28;19967;-82
2022/10/24 06:53:40;;;;;;;;;;;;;;;34.53;17.41;99498.50;5023110;28;19921;-87
2022/10/24 06:56:06;;;;;;;;;;;;;;;34.44;16.85;99495.41;5022548;28;20320;-84
2022/10/24 06:58:31;;;;;;;;;;;;;;;34.48;17.05;99491.13;5019934;28;19921;-84
2022/10/24 07:00:57;;;;;;;;;;;;;;;34.10;17.60;99498.28;5004085;28;19917;-86
2022/10/24 07:03:22;;;;;;;;;;;;;;;33.70;18.13;99496.72;5005573;28;20313;-84
2022/10/24 07:05:47;;;;;;;;;;;;;;;33.61;18.14;99495.50;5007567;28;19968;-85
2022/10/24 07:08:13;;;;;;;;;;;;;;;33.41;18.37;99494.13;5006215;28;19967;-84
2022/10/24 07:10:38;;;;;;;;;;;;;;;33.31;18.23;99486.69;5007210;28;19917;-86
2022/10/24 07:13:03;;;;;;;;;;;;;;;33.43;18.36;99486.59;5022998;28;19925;-85
2022/10/24 07:15:28;;;;;;;;;;;;;;;33.51;18.25;99483.47;5006744;28;19933;-82
2022/10/24 07:17:54;;;;;;;;;;;;;;;33.53;18.34;99484.03;5007613;28;19917;-86
2022/10/24 07:20:19;;;;;;;;;;;;;;;33.55;18.58;99478.34;5007084;28;19929;-84
2022/10/24 07:22:45;;;;;;;;;;;;;;;33.61;18.15;99482.78;5008607;28;20410;-85
2022/10/24 07:25:11;;;;;;;;;;;;;;;33.67;18.15;99483.66;5022174;28;19926;-85
2022/10/24 07:27:36;;;;;;;;;;;;;;;33.79;18.25;99484.38;5023231;28;19917;-86
2022/10/24 07:30:03;;;;;;;;;;;;;;;33.89;18.47;99489.13;5005383;28;19931;-85
2022/10/24 07:32:28;;;;;;;;;;;;;;;33.97;18.15;99485.13;5021724;28;19917;-85
2022/10/24 07:34:53;;;;;;;;;;;;;;;34.13;17.96;99488.81;5023692;28;19923;-85
2022/10/24 07:37:19;;;;;;;;;;;;;;;34.32;17.60;99484.75;5006754;28;19968;-85
2022/10/24 07:39:45;;;;;;;;;;;;;;;34.58;17.82;99496.63;5023044;28;19917;-86
2022/10/24 07:42:11;;;;;;;;;;;;;;;34.64;17.42;99496.69;5025680;28;19978;-86
2022/10/24 07:44:36;;;;;;;;;;;;;;;34.66;17.23;99495.34;5005101;28;19921;-86
2022/10/24 07:47:05;;;;;;;;;;;;;;;34.60;17.28;99490.94;5023224;28;19981;-87
2022/10/24 07:49:31;;;;;;;;;;;;;;;34.73;17.02;99493.25;5022945;28;19921;-86
2022/10/24 07:51:56;;;;;;;;;;;;;;;34.76;17.44;99481.91;5006607;28;20388;-88
2022/10/24 07:54:23;;;;;;;;;;;;;;;34.83;17.36;99487.13;5005136;28;19924;-84
2022/10/24 07:56:48;;;;;;;;;;;;;;;34.89;17.05;99482.56;5003481;28;19917;-84
2022/10/24 07:59:13;;;;;;;;;;;;;;;34.98;17.10;99478.28;5006468;28;19940;-85
2022/10/24 08:01:39;;;;;;;;;;;;;;;34.97;17.06;99482.09;5023630;28;20007;-85
2022/10/24 08:04:04;;;;;;;;;;;;;;;35.08;17.18;99485.69;5009280;28;19918;-86
2022/10/24 08:06:29;;;;;;;;;;;;;;;35.04;16.87;99487.28;5007958;28;20407;-86
2022/10/24 08:08:55;;;;;;;;;;;;;;;35.00;17.30;99486.16;5010811;28;19921;-87
2022/10/24 08:11:24;;;;;;;;;;;;;;;35.07;16.81;99482.13;5009638;28;19968;-86
2022/10/24 08:13:49;;;;;;;;;;;;;;;35.18;16.79;99491.16;5008696;28;20016;-87
2022/10/24 08:16:15;;;;;;;;;;;;;;;35.18;16.94;99483.03;5010597;28;20376;-87
2022/10/24 08:18:40;;;;;;;;;;;;;;;35.15;16.64;99489.81;5025697;28;19922;-86
2022/10/24 08:21:07;;;;;;;;;;;;;;;35.30;16.79;99482.88;5026760;28;19922;-87
2022/10/24 08:23:33;;;;;;;;;;;;;;;35.43;16.58;99485.13;5011758;28;19994;-88
2022/10/24 08:25:58;;;;;;;;;;;;;;;35.54;16.38;99490.63;5026615;28;20377;-87
2022/10/24 08:28:23;;;;;;;;;;;;;;;35.67;16.58;99477.34;5008925;28;20388;-86
2022/10/24 08:30:58;;;;;;;;;;;;;;;35.80;16.26;99489.69;5026986;28;20101;-86
2022/10/24 08:33:24;;;;;;;;;;;;;;;35.91;16.29;99487.00;5025787;28;19917;-87
2022/10/24 08:35:49;;;;;;;;;;;;;;;36.03;16.02;99484.84;5026658;28;19926;-87
2022/10/24 08:38:14;;;;;;;;;;;;;;;36.09;15.89;99478.34;5009406;28;20407;-87
2022/10/24 08:40:40;;;;;;;;;;;;;;;36.15;15.99;99474.56;5010751;28;19925;-86
2022/10/24 08:43:05;;;;;;;;;;;;;;;36.16;15.91;99481.63;5009466;28;19917;-87
2022/10/24 08:45:49;;;;;;;;;;;;;;;36.21;15.62;99478.94;5008308;28;19922;-87
2022/10/24 08:48:16;;;;;;;;;;;;;;;36.32;15.62;99476.25;5023695;28;19957;-87
2022/10/24 08:50:42;;;;;;;;;;;;;;;36.40;15.81;99475.72;5007550;28;19921;-84
2022/10/24 08:53:28;;;;;;;;;;;;;;;36.47;15.68;99465.41;5010305;28;19925;-88
2022/10/24 08:55:53;;;;;;;;;;;;;;;36.53;15.48;99472.47;5026837;28;19917;-86
2022/10/24 08:58:20;;;;;;;;;;;;;;;36.58;15.39;99464.31;5007709;28;19918;-89
2022/10/24 09:00:46;;;;;;;;;;;;;;;36.69;15.32;99459.69;5023688;28;19916;-85
2022/10/24 09:03:17;;;;;;;;;;;;;;;36.91;15.47;99464.03;5026498;28;20522;-87
2022/10/24 09:05:45;;;;;;;;;;;;;;;37.29;14.97;99450.94;5027725;28;19928;-87
2022/10/24 09:08:26;;;;;;;;;;;;;;;37.64;14.58;99452.72;5015562;28;19979;-88
2022/10/24 09:10:56;;;;;;;;;;;;;;;37.88;14.51;99449.38;5035297;28;19950;-86
2022/10/24 09:13:22;;;;;;;;;;;;;;;37.99;14.21;99456.41;5036979;28;19917;-87
2022/10/24 09:15:48;;;;;;;;;;;;;;;37.95;14.53;99444.41;5031076;28;19998;-88
2022/10/24 09:18:39;;;;;;;;;;;;;;;37.88;14.75;99445.84;5007491;28;19917;-86
2022/10/24 09:21:05;;;;;;;;;;;;;;;37.76;14.73;99440.72;5025875;28;19933;-86
2022/10/24 09:23:31;;;;;;;;;;;;;;;37.76;14.43;99435.28;5007019;28;19917;-88
2022/10/24 09:25:57;;;;;;;;;;;;;;;37.72;14.60;99434.19;5009526;28;19917;-87
2022/10/24 09:28:22;;;;;;;;;;;;;;;37.62;14.96;99426.84;5008808;28;19979;-83
2022/10/24 09:30:47;;;;;;;;;;;;;;;37.51;15.16;99425.28;5007798;28;19917;-87
2022/10/24 09:33:24;;;;;;;;;;;;;;;37.49;14.74;99428.28;5011949;28;19943;-88
2022/10/24 09:35:50;;;;;;;;;;;;;;;37.48;14.72;99429.41;5012262;28;19922;-87
2022/10/24 09:38:34;;;;;;;;;;;;;;;37.47;14.88;99423.13;5008833;28;19940;-86
2022/10/24 09:41:03;;;;;;;;;;;;;;;37.50;14.74;99419.03;5010164;28;19924;-88
2022/10/24 09:43:32;;;;;;;;;;;;;;;37.50;14.85;99418.19;5026529;28;19916;-87
2022/10/24 09:46:17;;;;;;;;;;;;;;;37.48;14.74;99421.22;5029429;28;19941;-86
2022/10/24 09:48:50;;;;;;;;;;;;;;;37.46;14.92;99413.34;5027948;28;20001;-87
2022/10/24 09:51:20;;;;;;;;;;;;;;;37.42;15.06;99406.81;5007224;28;19921;-86
2022/10/24 09:54:04;;;;;;;;;;;;;;;37.37;14.99;99411.44;5026247;28;20019;-86
2022/10/24 09:56:33;;;;;;;;;;;;;;;37.24;15.35;99404.69;5026755;28;20321;-88
2022/10/24 09:59:14;;;;;;;;;;;;;;;37.18;15.47;99403.03;5007106;28;19921;-86
2022/10/24 10:01:40;;;;;;;;;;;;;;;37.10;15.04;99394.38;5008336;28;19997;-85
2022/10/24 10:04:07;;;;;;;;;;;;;;;36.99;15.33;99386.50;5010260;28;19971;-89
2022/10/24 10:06:33;;;;;;;;;;;;;;;36.85;15.34;99387.09;5026661;28;19918;-88
2022/10/24 10:08:59;;;;;;;;;;;;;;;36.78;15.54;99385.75;5010300;28;19917;-89
2022/10/24 10:11:25;;;;;;;;;;;;;;;36.67;15.72;99382.19;5010701;28;19918;-87
2022/10/24 10:13:53;;;;;;;;;;;;;;;36.51;15.81;99387.63;5025111;28;19926;-89
2022/10/24 10:16:26;;;;;;;;;;;;;;;36.40;15.86;99377.84;5012857;28;19917;-88
2022/10/24 10:19:12;;;;;;;;;;;;;;;36.26;16.21;99372.13;5027321;28;19948;-87
2022/10/24 10:21:51;;;;;;;;;;;;;;;36.15;16.33;99374.03;5023292;28;20017;-88
2022/10/24 10:24:39;;;;;;;;;;;;;;;35.98;16.36;99366.13;5027197;28;19918;-89
2022/10/24 10:27:23;;;;;;;;;;;;;;;35.81;16.62;99371.78;4989123;28;19918;-85
2022/10/24 10:29:48;;;;;;;;;;;;;;;35.65;16.69;99365.47;5004027;28;19917;-87
2022/10/24 10:32:18;;;;;;;;;;;;;;;35.51;16.73;99364.34;5003500;28;19922;-88
2022/10/24 10:34:43;;;;;;;;;;;;;;;35.35;16.79;99360.78;4989855;28;19928;-85
2022/10/24 10:37:09;;;;;;;;;;;;;;;35.21;16.78;99360.41;5003774;28;19918;-87
2022/10/24 10:39:52;;;;;;;;;;;;;;;35.05;17.12;99356.00;5004101;28;19971;-86
2022/10/24 10:42:28;;;;;;;;;;;;;;;34.86;17.06;99356.44;5002140;28;19929;-88
2022/10/24 10:44:56;;;;;;;;;;;;;;;34.69;17.61;99347.63;4987419;28;19925;-85
2022/10/24 10:47:45;;;;;;;;;;;;;;;34.56;17.79;99348.91;4986815;28;19917;-87
2022/10/24 10:50:19;;;;;;;;;;;;;;;34.41;18.09;99346.88;4988427;28;19925;-86
2022/10/24 10:52:48;;;;;;;;;;;;;;;34.26;17.99;99344.88;4986980;28;19925;-88
2022/10/24 10:55:28;;;;;;;;;;;;;;;34.11;17.96;99344.69;5005830;28;19922;-84
2022/10/24 10:57:53;;;;;;;;;;;;;;;33.94;17.92;99340.22;5002342;28;19921;-86
2022/10/24 11:00:21;;;;;;;;;;;;;;;33.83;17.93;99338.50;5005698;28;19917;-88
2022/10/24 11:03:05;;;;;;;;;;;;;;;33.70;18.33;99337.84;4972910;28;20413;-87
2022/10/24 11:05:43;;;;;;;;;;;;;;;33.56;18.19;99324.91;5025877;28;19921;-89
2022/10/24 11:08:24;;;;;;;;;;;;;;;33.36;18.29;99329.84;5010393;28;20416;-87
2022/10/24 11:10:54;;;;;;;;;;;;;;;33.14;18.48;99324.41;5026546;28;19940;-88
2022/10/24 11:13:23;;;;;;;;;;;;;;;32.97;18.86;99321.75;5029509;28;19963;-89
2022/10/24 11:15:49;;;;;;;;;;;;;;;32.86;18.73;99313.75;5027304;28;19924;-87
2022/10/24 11:18:35;;;;;;;;;;;;;;;32.68;18.84;99317.56;5007832;28;19918;-87
2022/10/24 11:21:02;;;;;;;;;;;;;;;32.50;19.31;99314.03;5026173;28;19929;-88
2022/10/24 11:23:35;;;;;;;;;;;;;;;32.38;19.34;99311.41;5025843;28;20369;-88
2022/10/24 11:26:03;;;;;;;;;;;;;;;32.25;19.02;99309.06;5022472;28;19937;-88
2022/10/24 11:28:36;;;;;;;;;;;;;;;32.09;19.57;99297.19;5026972;28;19921;-88
2022/10/24 11:31:10;;;;;;;;;;;;;;;31.94;19.67;99297.69;5007274;28;19921;-87
2022/10/24 11:33:38;;;;;;;;;;;;;;;31.73;20.28;99296.53;5003710;28;19924;-86
2022/10/24 11:36:09;;;;;;;;;;;;;;;31.59;20.47;99292.50;5007405;28;19928;-83
2022/10/24 11:38:35;;;;;;;;;;;;;;;31.44;20.49;99290.28;5013272;28;19971;-88
2022/10/24 11:41:14;;;;;;;;;;;;;;;31.34;20.55;99288.22;5011530;28;20375;-88
2022/10/24 11:43:40;;;;;;;;;;;;;;;31.15;20.22;99288.41;5012469;28;19918;-89
2022/10/24 11:46:14;;;;;;;;;;;;;;;30.99;20.63;99281.84;5019656;28;19952;-87
2022/10/24 11:48:44;;;;;;;;;;;;;;;30.83;20.57;99277.19;5026994;28;19917;-86
2022/10/24 11:51:12;;;;;;;;;;;;;;;30.61;21.44;99274.28;5033991;28;19918;-87
2022/10/24 11:53:38;;;;;;;;;;;;;;;30.53;21.66;99261.16;5022812;28;19924;-86
2022/10/24 11:56:11;;;;;;;;;;;;;;;30.38;21.93;99264.28;5023900;28;19928;-82
2022/10/24 11:58:40;;;;;;;;;;;;;;;30.31;21.51;99265.25;5004744;28;19917;-86
2022/10/24 12:01:24;;;;;;;;;;;;;;;30.22;21.70;99263.09;5021788;28;19917;-86
2022/10/24 12:04:04;;;;;;;;;;;;;;;30.08;22.33;99260.66;5024275;28;19968;-87
2022/10/24 12:06:32;;;;;;;;;;;;;;;29.99;22.00;99256.66;5005288;28;19918;-86
2022/10/24 12:09:04;;;;;;;;;;;;;;;29.89;22.30;99248.34;5019756;28;19918;-85
2022/10/24 12:11:32;;;;;;;;;;;;;;;29.71;22.13;99238.41;5020285;28;19924;-80
2022/10/24 12:14:01;;;;;;;;;;;;;;;29.61;22.37;99238.16;5016773;28;19918;-81
2022/10/24 12:16:39;;;;;;;;;;;;;;;29.50;22.44;99242.47;5021347;28;19982;-87
2022/10/24 12:19:05;;;;;;;;;;;;;;;29.35;22.86;99238.31;5025035;28;19932;-88
2022/10/24 12:21:38;;;;;;;;;;;;;;;29.32;22.81;99236.09;5027608;28;19929;-88
2022/10/24 12:24:04;;;;;;;;;;;;;;;29.28;22.81;99236.75;5024786;28;19976;-83
2022/10/24 12:26:29;;;;;;;;;;;;;;;29.12;23.06;99227.44;5005375;28;19917;-87
2022/10/24 12:29:01;;;;;;;;;;;;;;;29.02;23.16;99228.78;5007482;28;19918;-86
2022/10/24 12:31:36;;;;;;;;;;;;;;;29.01;23.31;99223.63;5006922;28;19925;-87
2022/10/24 12:34:14;;;;;;;;;;;;;;;28.90;23.49;99227.88;5022678;28;19917;-88
2022/10/24 12:36:58;;;;;;;;;;;;;;;28.88;23.30;99224.63;5021389;28;19944;-89
2022/10/24 12:39:30;;;;;;;;;;;;;;;28.79;23.57;99221.38;5022237;28;19958;-87
2022/10/24 12:41:57;;;;;;;;;;;;;;;28.71;23.79;99216.31;5024460;28;20360;-90
2022/10/24 12:44:24;;;;;;;;;;;;;;;28.71;23.72;99212.81;5010017;28;20324;-88
2022/10/24 12:46:49;;;;;;;;;;;;;;;28.63;23.97;99212.06;5029299;28;20325;-89
2022/10/24 12:49:16;;;;;;;;;;;;;;;28.52;24.13;99215.47;5028764;28;19917;-86
2022/10/24 12:51:42;;;;;;;;;;;;;;;28.47;24.11;99212.63;5009346;28;19979;-89
2022/10/24 12:54:10;;;;;;;;;;;;;;;28.38;24.25;99212.09;5025106;28;19921;-87